KGDJ

Granbury Regional Airport

Granbury, Texas, USA
METAR KGDJ 220955Z AUTO 00000KT 20/18 A3001 RMK AO2 T02010182 PWINO
Observed Flight Rules
May-22 @ 09:55 UTC (21 minutes ago)
Temperatures Readings
Current 20°C / 68°F
Dewpoint 18°C / 64°F
Humidity 88%
Altimeter 30.01" Hg
Pressure 1016 hPa
Elevation 237
METAR KGDJ 220955Z AUTO 00000KT 20/18 A3001 RMK AO2 T02010182 PWINO
Observed Flight Rules
May-22 @ 09:55 UTC
(21 minutes ago)
Temperature Dewpoint
20°C / 68°F 18°C / 64°F
Humidity Altimeter Pressure
88% 30.01" Hg 1016 hPa